createdAt,value
2023-04-23T00:01:18.871Z,81.21
2023-04-23T00:07:13.911Z,81.47
2023-04-23T00:10:03.821Z,81.78
2023-04-23T00:12:42.285Z,79.98
2023-04-23T00:15:09.960Z,78.97
2023-04-23T00:17:36.936Z,80.02
2023-04-23T00:20:04.245Z,81.75
2023-04-23T00:22:31.236Z,81.14
2023-04-23T00:24:58.153Z,80.37
2023-04-23T00:27:25.021Z,79.23
2023-04-23T00:29:51.994Z,79.72
2023-04-23T00:32:19.260Z,80.96
2023-04-23T00:34:49.041Z,85.88
2023-04-23T00:37:16.600Z,85.83
2023-04-23T00:39:44.254Z,86.44
2023-04-23T00:42:12.797Z,87.49
2023-04-23T00:44:41.150Z,85.39
2023-04-23T00:47:08.343Z,82.45
2023-04-23T00:49:35.968Z,84.34
2023-04-23T00:52:04.022Z,85.41
2023-04-23T00:54:31.438Z,86.57
2023-04-23T00:56:58.851Z,87.25
2023-04-23T00:59:27.222Z,87.88
2023-04-23T01:01:54.652Z,88.95
2023-04-23T01:04:50.174Z,88.49
2023-04-23T01:07:40.952Z,86.48
2023-04-23T01:10:31.095Z,85.66
2023-04-23T01:13:15.376Z,85.62
2023-04-23T01:16:02.790Z,86.05
2023-04-23T01:18:30.915Z,85.68
2023-04-23T01:20:57.896Z,85.00
2023-04-23T01:23:25.007Z,82.94
2023-04-23T01:25:52.115Z,82.23
2023-04-23T01:28:19.250Z,82.92
2023-04-23T01:30:48.123Z,83.53
2023-04-23T01:33:16.154Z,83.09
2023-04-23T01:35:44.386Z,82.80
2023-04-23T01:38:12.159Z,82.76
2023-04-23T01:40:39.257Z,82.21
2023-04-23T01:43:07.623Z,83.01
2023-04-23T01:45:36.457Z,83.50
2023-04-23T01:48:03.573Z,83.05
2023-04-23T01:50:30.830Z,81.70
2023-04-23T01:52:57.736Z,83.41
2023-04-23T01:55:24.793Z,83.23
2023-04-23T01:57:51.899Z,82.88
2023-04-23T02:00:19.202Z,83.11
2023-04-23T02:02:46.358Z,83.71
2023-04-23T02:05:16.892Z,85.51
2023-04-23T02:07:45.186Z,84.97
2023-04-23T02:10:12.764Z,84.79
2023-04-23T02:12:40.215Z,85.29
2023-04-23T02:15:08.921Z,85.42
2023-04-23T02:17:35.981Z,87.74
2023-04-23T02:20:03.549Z,86.58
2023-04-23T02:22:32.007Z,88.16
2023-04-23T02:25:00.131Z,89.96
2023-04-23T02:27:27.679Z,89.67
2023-04-23T02:29:54.729Z,90.49
2023-04-23T02:32:21.818Z,89.55
2023-04-23T02:34:48.946Z,89.51
2023-04-23T02:37:15.916Z,88.74
2023-04-23T02:39:42.849Z,89.32
2023-04-23T02:42:09.896Z,89.49
2023-04-23T02:44:36.860Z,89.31
2023-04-23T02:47:04.085Z,87.24
2023-04-23T02:49:31.077Z,88.09
2023-04-23T02:51:58.044Z,88.88
2023-04-23T02:54:25.264Z,89.68
2023-04-23T02:56:52.210Z,91.22
2023-04-23T02:59:19.414Z,91.81
2023-04-23T03:01:46.446Z,91.24
2023-04-23T03:04:13.453Z,91.39
2023-04-23T03:06:40.800Z,91.29
2023-04-23T03:09:07.727Z,90.91
2023-04-23T03:11:34.756Z,90.26
2023-04-23T03:14:01.728Z,90.99
2023-04-23T03:16:30.418Z,90.88
2023-04-23T03:18:57.983Z,91.39
2023-04-23T03:21:25.010Z,90.75
2023-04-23T03:23:51.927Z,90.11
2023-04-23T03:26:18.827Z,91.92
2023-04-23T03:28:45.758Z,92.82
2023-04-23T03:31:12.718Z,94.21
2023-04-23T03:33:39.667Z,92.87
2023-04-23T03:36:06.820Z,93.33
2023-04-23T03:38:33.759Z,94.36
2023-04-23T03:41:00.761Z,93.52
2023-04-23T03:43:28.129Z,93.80
2023-04-23T03:45:55.057Z,93.94
2023-04-23T03:48:21.971Z,94.93
2023-04-23T03:50:49.103Z,94.03
2023-04-23T03:53:17.909Z,93.56
2023-04-23T03:55:45.099Z,94.01
2023-04-23T03:58:12.100Z,93.51
2023-04-23T04:00:38.981Z,94.36
2023-04-23T04:03:06.133Z,94.26
2023-04-23T04:05:33.174Z,94.65
2023-04-23T04:08:00.147Z,95.06
2023-04-23T04:10:27.119Z,94.55
2023-04-23T04:12:55.590Z,94.01
2023-04-23T04:15:22.702Z,94.50
2023-04-23T04:17:49.905Z,94.18
2023-04-23T04:20:16.919Z,94.73
2023-04-23T04:22:44.011Z,94.23
2023-04-23T04:25:10.955Z,93.87
2023-04-23T04:27:39.364Z,93.39
2023-04-23T04:30:07.056Z,92.48
2023-04-23T04:32:34.583Z,91.41
2023-04-23T04:35:02.879Z,91.80
2023-04-23T04:37:29.846Z,92.31
2023-04-23T04:39:57.326Z,90.54
2023-04-23T04:42:25.690Z,90.49
2023-04-23T04:44:53.192Z,90.09
2023-04-23T04:47:20.193Z,89.52
2023-04-23T04:49:47.113Z,89.05
2023-04-23T04:52:13.977Z,88.21
2023-04-23T04:54:42.181Z,87.67
2023-04-23T04:57:09.769Z,88.82
2023-04-23T04:59:37.090Z,87.57
2023-04-23T05:02:04.196Z,86.41
2023-04-23T05:04:31.196Z,85.21
2023-04-23T05:06:58.126Z,85.19
2023-04-23T05:09:25.939Z,83.87
2023-04-23T05:11:53.008Z,80.47
2023-04-23T05:14:19.985Z,77.00
2023-04-23T05:16:46.974Z,74.57
2023-04-23T05:19:13.913Z,70.74
2023-04-23T05:21:40.876Z,68.72
2023-04-23T05:24:07.914Z,66.85
2023-04-23T05:26:34.884Z,62.48
2023-04-23T05:29:02.418Z,59.87
2023-04-23T05:31:29.567Z,59.50
2023-04-23T05:33:56.587Z,59.09
2023-04-23T05:36:23.472Z,56.16
2023-04-23T05:38:50.383Z,56.05
2023-04-23T05:41:17.353Z,56.91
2023-04-23T05:43:44.410Z,52.93
2023-04-23T05:46:11.356Z,51.68
2023-04-23T05:48:38.339Z,50.55
2023-04-23T05:51:05.644Z,47.26
2023-04-23T05:53:32.667Z,46.60
2023-04-23T05:55:59.544Z,44.28
2023-04-23T05:58:26.501Z,43.52
2023-04-23T06:00:53.978Z,43.62
2023-04-23T06:03:21.284Z,43.88
2023-04-23T06:05:48.474Z,41.47
2023-04-23T06:08:15.566Z,42.25
2023-04-23T06:10:42.640Z,42.26
2023-04-23T06:13:11.460Z,41.83
2023-04-23T06:15:38.906Z,39.97
2023-04-23T06:18:06.448Z,40.62
2023-04-23T06:20:33.431Z,38.89
2023-04-23T06:23:00.431Z,40.91
2023-04-23T06:25:27.424Z,39.22
2023-04-23T06:27:54.361Z,38.45
2023-04-23T06:30:21.410Z,38.50
2023-04-23T06:32:48.744Z,39.27
2023-04-23T06:35:16.186Z,37.58
2023-04-23T06:37:43.486Z,38.50
2023-04-23T06:40:11.596Z,38.69
2023-04-23T06:42:39.591Z,39.19
2023-04-23T06:45:07.669Z,38.41
2023-04-23T06:47:35.891Z,38.13
2023-04-23T06:50:03.934Z,37.70
2023-04-23T06:52:31.132Z,37.20
2023-04-23T06:54:58.040Z,35.92
2023-04-23T06:57:24.970Z,35.69
2023-04-23T06:59:52.209Z,37.13
2023-04-23T07:02:19.288Z,34.74
2023-04-23T07:04:47.046Z,36.36
2023-04-23T07:07:14.380Z,35.05
2023-04-23T07:09:41.672Z,37.03
2023-04-23T07:12:09.044Z,35.29
2023-04-23T07:14:36.010Z,38.42
2023-04-23T07:17:03.454Z,38.11
2023-04-23T07:19:30.415Z,36.64
2023-04-23T07:21:57.338Z,37.85
2023-04-23T07:24:26.643Z,38.21
2023-04-23T07:26:53.943Z,36.71
2023-04-23T07:29:21.237Z,40.96
2023-04-23T07:31:51.197Z,39.12
2023-04-23T07:34:18.255Z,37.45
2023-04-23T07:36:45.245Z,39.32
2023-04-23T07:39:12.378Z,39.69
2023-04-23T07:41:39.442Z,40.90
2023-04-23T07:44:07.048Z,41.12
2023-04-23T07:46:34.088Z,38.54
2023-04-23T07:49:01.124Z,38.92
2023-04-23T07:51:28.773Z,38.77
2023-04-23T07:53:56.689Z,39.53
2023-04-23T07:56:24.910Z,39.18
2023-04-23T07:58:54.392Z,37.83
2023-04-23T08:01:22.029Z,39.38
2023-04-23T08:03:49.128Z,38.98
2023-04-23T08:06:16.407Z,38.34
2023-04-23T08:08:43.326Z,38.08
2023-04-23T08:11:11.320Z,36.23
2023-04-23T08:13:38.404Z,36.52
2023-04-23T08:16:05.575Z,37.03
2023-04-23T08:18:32.636Z,37.28
2023-04-23T08:20:59.825Z,36.76
2023-04-23T08:23:26.776Z,35.75
2023-04-23T08:25:53.746Z,36.45
2023-04-23T08:28:20.735Z,37.46
2023-04-23T08:30:47.669Z,35.69
2023-04-23T08:33:15.406Z,35.38
2023-04-23T08:35:42.389Z,36.27
2023-04-23T08:38:09.606Z,36.49
2023-04-23T08:40:38.362Z,36.85
2023-04-23T08:43:17.332Z,37.20
2023-04-23T08:45:48.000Z,34.71
2023-04-23T08:48:15.455Z,35.78
2023-04-23T08:50:43.686Z,36.56
2023-04-23T08:53:11.418Z,35.22
2023-04-23T08:55:38.933Z,34.61
2023-04-23T08:58:06.906Z,34.84
2023-04-23T09:00:36.758Z,34.82
2023-04-23T09:03:05.272Z,34.68
2023-04-23T09:05:32.796Z,31.78
2023-04-23T09:08:00.150Z,33.90
2023-04-23T09:10:27.292Z,33.31
2023-04-23T09:12:54.250Z,31.11
2023-04-23T09:15:21.280Z,31.06
2023-04-23T09:17:48.644Z,32.16
2023-04-23T09:20:15.923Z,32.62
2023-04-23T09:22:52.817Z,32.35
2023-04-23T09:25:21.924Z,34.53
2023-04-23T09:27:51.070Z,31.95
2023-04-23T09:30:19.341Z,32.93
2023-04-23T09:32:47.269Z,31.08
2023-04-23T09:35:16.509Z,34.94
2023-04-23T09:37:49.024Z,31.86
2023-04-23T09:40:18.909Z,33.08
2023-04-23T09:42:50.275Z,32.01
2023-04-23T09:45:17.711Z,32.42
2023-04-23T09:47:53.333Z,30.97
2023-04-23T09:50:33.001Z,30.55
2023-04-23T09:53:00.778Z,32.38
2023-04-23T09:55:31.032Z,30.91
2023-04-23T09:57:58.860Z,30.29
2023-04-23T10:00:29.628Z,28.93
2023-04-23T10:02:56.680Z,29.17
2023-04-23T10:05:29.432Z,27.96
2023-04-23T10:08:06.777Z,28.75
2023-04-23T10:10:40.638Z,30.29
2023-04-23T10:13:20.206Z,29.90
2023-04-23T10:15:48.461Z,29.09
2023-04-23T10:18:15.491Z,31.09
2023-04-23T10:20:43.290Z,28.82
2023-04-23T10:23:13.446Z,29.97
2023-04-23T10:25:41.837Z,29.86
2023-04-23T10:28:12.044Z,30.10
2023-04-23T10:30:40.186Z,28.57
2023-04-23T10:33:15.690Z,27.56
2023-04-23T10:35:48.644Z,27.79
2023-04-23T10:38:16.429Z,29.35
2023-04-23T10:40:47.075Z,28.53
2023-04-23T10:43:14.432Z,27.09
2023-04-23T10:45:41.356Z,30.05
2023-04-23T10:48:09.392Z,28.43
2023-04-23T10:50:37.826Z,27.23
2023-04-23T10:53:05.599Z,30.28
2023-04-23T10:55:33.335Z,30.37
2023-04-23T10:58:08.145Z,27.75
2023-04-23T11:00:46.946Z,28.03
2023-04-23T11:03:32.580Z,27.84
2023-04-23T11:06:04.031Z,26.60
2023-04-23T11:08:34.727Z,26.61
2023-04-23T11:11:03.113Z,27.54
2023-04-23T11:13:30.670Z,27.22
2023-04-23T11:16:22.894Z,28.08
2023-04-23T11:19:12.686Z,27.70
2023-04-23T11:21:59.130Z,27.87
2023-04-23T11:24:30.937Z,27.78
2023-04-23T11:26:58.970Z,26.15
2023-04-23T11:29:28.046Z,26.70
2023-04-23T11:34:26.492Z,26.62
2023-04-23T11:36:54.956Z,25.11
2023-04-23T11:39:26.745Z,29.10
2023-04-23T11:41:54.411Z,28.20
2023-04-23T11:44:22.306Z,28.01
2023-04-23T11:46:50.497Z,27.94
2023-04-23T11:49:19.157Z,29.21
2023-04-23T11:51:47.074Z,27.67
2023-04-23T11:54:15.080Z,27.15
2023-04-23T11:56:42.875Z,30.11
2023-04-23T11:59:10.117Z,28.95
2023-04-23T12:01:48.440Z,28.60
2023-04-23T12:04:20.912Z,27.66
2023-04-23T12:06:49.207Z,25.24
2023-04-23T12:09:17.820Z,27.23
2023-04-23T12:11:46.154Z,30.64
2023-04-23T12:14:15.647Z,27.71
2023-04-23T12:16:44.877Z,28.52
2023-04-23T12:19:15.948Z,27.83
2023-04-23T12:21:56.226Z,29.50
2023-04-23T12:24:29.450Z,28.22
2023-04-23T12:27:03.170Z,28.16
2023-04-23T12:29:32.481Z,27.60
2023-04-23T12:32:00.721Z,28.08
2023-04-23T12:34:27.777Z,26.42
2023-04-23T12:36:56.565Z,30.57
2023-04-23T12:39:34.065Z,28.83
2023-04-23T12:42:05.598Z,27.04
2023-04-23T12:44:36.558Z,27.89
2023-04-23T12:47:08.645Z,27.95
2023-04-23T12:49:37.149Z,26.92
2023-04-23T12:52:05.443Z,27.96
2023-04-23T12:54:40.730Z,27.41
2023-04-23T12:57:11.659Z,28.30
2023-04-23T12:59:39.500Z,28.19
2023-04-23T13:02:07.949Z,29.70
2023-04-23T13:04:37.028Z,28.50
2023-04-23T13:07:04.190Z,29.07
2023-04-23T13:12:13.581Z,27.41
2023-04-23T13:14:40.640Z,28.21
2023-04-23T13:17:07.731Z,28.08
2023-04-23T13:19:35.734Z,28.77
2023-04-23T13:22:04.017Z,30.68
2023-04-23T13:24:31.178Z,28.74
2023-04-23T13:26:58.161Z,29.11
2023-04-23T13:29:27.552Z,29.35
2023-04-23T13:31:58.407Z,27.81
2023-04-23T13:34:25.538Z,28.55
2023-04-23T13:36:52.585Z,28.45
2023-04-23T13:39:20.496Z,27.40
2023-04-23T13:41:59.220Z,29.27
2023-04-23T13:44:33.767Z,26.63
2023-04-23T13:47:00.806Z,26.88
2023-04-23T13:49:28.063Z,26.70
2023-04-23T13:51:59.178Z,26.89
2023-04-23T13:54:28.061Z,27.63
2023-04-23T13:56:58.428Z,27.84
2023-04-23T13:59:26.201Z,26.75
2023-04-23T14:01:53.176Z,26.18
2023-04-23T14:04:22.867Z,27.30
2023-04-23T14:06:50.277Z,27.14
2023-04-23T14:09:17.228Z,27.26
2023-04-23T14:11:44.168Z,27.28
2023-04-23T14:14:11.241Z,27.96
2023-04-23T14:16:38.197Z,28.31
2023-04-23T14:19:05.137Z,28.00
2023-04-23T14:21:32.163Z,28.58
2023-04-23T14:24:08.870Z,28.60
2023-04-23T14:26:48.000Z,28.92
2023-04-23T14:29:23.498Z,29.25
2023-04-23T14:31:50.826Z,27.78
2023-04-23T14:34:17.732Z,28.77
2023-04-23T14:36:46.794Z,31.07
2023-04-23T14:39:13.693Z,29.56
2023-04-23T14:41:41.223Z,30.44
2023-04-23T14:44:08.205Z,29.26
2023-04-23T14:46:35.155Z,30.63
2023-04-23T14:49:02.129Z,30.79
2023-04-23T14:51:29.138Z,31.71
2023-04-23T14:53:56.836Z,29.72
2023-04-23T14:56:24.186Z,29.61
2023-04-23T14:58:51.107Z,30.76
2023-04-23T15:01:18.237Z,30.20
2023-04-23T15:03:46.552Z,31.58
2023-04-23T15:06:13.755Z,31.82
2023-04-23T15:08:40.756Z,30.58
2023-04-23T15:11:13.616Z,30.82
2023-04-23T15:13:57.998Z,31.50
2023-04-23T15:19:06.833Z,32.36
2023-04-23T15:21:33.843Z,32.31
2023-04-23T15:24:00.726Z,31.85
2023-04-23T15:26:27.912Z,33.60
2023-04-23T15:28:54.862Z,34.35
2023-04-23T15:31:21.799Z,32.14
2023-04-23T15:33:48.746Z,33.25
2023-04-23T15:36:15.832Z,31.49
2023-04-23T15:38:42.860Z,31.23
2023-04-23T15:41:09.853Z,30.66
2023-04-23T15:43:36.770Z,30.63
2023-04-23T15:46:03.731Z,32.00
2023-04-23T15:48:30.690Z,30.74
2023-04-23T15:50:57.696Z,30.43
2023-04-23T15:53:24.680Z,30.91
2023-04-23T15:55:52.074Z,30.37
2023-04-23T15:58:19.909Z,31.21
2023-04-23T16:00:47.291Z,30.06
2023-04-23T16:03:15.398Z,30.39
2023-04-23T16:05:42.734Z,31.55
2023-04-23T16:08:10.097Z,31.78
2023-04-23T16:10:38.537Z,32.42
2023-04-23T16:13:06.618Z,32.09
2023-04-23T16:15:33.723Z,32.78
2023-04-23T16:18:00.985Z,33.44
2023-04-23T16:20:28.782Z,33.53
2023-04-23T16:22:56.037Z,33.94
2023-04-23T16:25:23.059Z,34.68
2023-04-23T16:27:50.224Z,34.98
2023-04-23T16:30:17.145Z,34.64
2023-04-23T16:32:44.161Z,34.48
2023-04-23T16:35:11.352Z,35.08
2023-04-23T16:37:38.328Z,36.18
2023-04-23T16:40:06.218Z,35.42
2023-04-23T16:42:33.263Z,34.93
2023-04-23T16:45:00.263Z,33.31
2023-04-23T16:47:27.306Z,34.43
2023-04-23T16:49:54.437Z,32.82
2023-04-23T16:52:21.656Z,33.30
2023-04-23T16:54:49.716Z,33.37
2023-04-23T16:57:17.670Z,34.46
2023-04-23T16:59:44.664Z,33.95
2023-04-23T17:02:11.834Z,35.15
2023-04-23T17:04:39.138Z,38.44
2023-04-23T17:07:06.398Z,37.69
2023-04-23T17:09:33.351Z,37.95
2023-04-23T17:12:00.398Z,38.55
2023-04-23T17:14:27.996Z,40.28
2023-04-23T17:16:56.411Z,39.33
2023-04-23T17:19:23.450Z,38.84
2023-04-23T17:21:54.271Z,38.34
2023-04-23T17:24:21.704Z,39.07
2023-04-23T17:26:49.456Z,39.41
2023-04-23T17:29:16.517Z,40.90
2023-04-23T17:31:43.696Z,42.47
2023-04-23T17:34:10.735Z,43.82
2023-04-23T17:36:37.660Z,42.25
2023-04-23T17:39:04.963Z,43.25
2023-04-23T17:41:31.848Z,43.08
2023-04-23T17:43:58.973Z,43.11
2023-04-23T17:46:26.003Z,43.84
2023-04-23T17:48:53.034Z,45.74
2023-04-23T17:51:19.998Z,45.95
2023-04-23T17:53:48.740Z,46.47
2023-04-23T17:56:16.414Z,48.96
2023-04-23T17:58:43.364Z,48.12
2023-04-23T18:01:10.947Z,46.72
2023-04-23T18:03:38.445Z,45.13
2023-04-23T18:06:06.105Z,44.21
2023-04-23T18:08:33.031Z,47.46
2023-04-23T18:11:00.915Z,46.75
2023-04-23T18:13:28.042Z,47.00
2023-04-23T18:15:55.053Z,47.09
2023-04-23T18:18:22.257Z,51.26
2023-04-23T18:20:49.344Z,50.54
2023-04-23T18:23:16.424Z,49.11
2023-04-23T18:25:43.385Z,48.71
2023-04-23T18:28:10.962Z,47.75
2023-04-23T18:30:38.444Z,49.92
2023-04-23T18:33:30.869Z,51.90
2023-04-23T18:36:45.057Z,52.96
2023-04-23T18:39:12.178Z,55.86
2023-04-23T18:41:39.070Z,53.75
2023-04-23T18:44:06.190Z,53.92
2023-04-23T18:46:33.451Z,53.12
2023-04-23T18:49:45.198Z,58.63
2023-04-23T18:52:12.346Z,55.59
2023-04-23T18:54:39.415Z,53.13
2023-04-23T18:57:06.763Z,50.05
2023-04-23T18:59:36.081Z,50.18
2023-04-23T19:02:04.909Z,50.19
2023-04-23T19:04:34.895Z,49.30
2023-04-23T19:07:02.145Z,48.18
2023-04-23T19:09:29.077Z,49.17
2023-04-23T19:11:56.387Z,50.95
2023-04-23T19:14:23.511Z,51.44
2023-04-23T19:16:51.399Z,50.19
2023-04-23T19:19:18.404Z,51.66
2023-04-23T19:21:45.291Z,51.03
2023-04-23T19:24:12.234Z,53.93
2023-04-23T19:26:39.219Z,53.15
2023-04-23T19:29:06.156Z,58.38
2023-04-23T19:31:33.311Z,58.54
2023-04-23T19:34:00.336Z,54.53
2023-04-23T19:36:27.257Z,56.68
2023-04-23T19:38:54.168Z,55.97
2023-04-23T19:41:21.095Z,58.62
2023-04-23T19:43:48.025Z,56.91
2023-04-23T19:46:14.990Z,55.94
2023-04-23T19:48:42.348Z,58.60
2023-04-23T19:51:09.446Z,55.19
2023-04-23T19:53:36.461Z,56.82
2023-04-23T19:56:03.421Z,59.79
2023-04-23T19:58:30.642Z,58.49
2023-04-23T20:00:57.767Z,57.13
2023-04-23T20:03:24.930Z,58.49
2023-04-23T20:05:52.664Z,57.68
2023-04-23T20:08:26.347Z,58.37
2023-04-23T20:10:54.188Z,57.44
2023-04-23T20:13:21.508Z,58.45
2023-04-23T20:15:50.190Z,58.30
2023-04-23T20:18:18.042Z,61.43
2023-04-23T20:20:45.042Z,63.94
2023-04-23T20:23:11.981Z,62.86
2023-04-23T20:25:38.960Z,62.92
2023-04-23T20:28:06.930Z,65.27
2023-04-23T20:30:33.810Z,67.72
2023-04-23T20:33:00.724Z,65.13
2023-04-23T20:35:28.906Z,64.73
2023-04-23T20:37:55.790Z,63.29
2023-04-23T20:40:22.933Z,65.45
2023-04-23T20:42:51.885Z,65.06
2023-04-23T20:45:19.633Z,65.10
2023-04-23T20:47:47.534Z,63.48
2023-04-23T20:50:14.482Z,63.31
2023-04-23T20:52:41.407Z,64.25
2023-04-23T20:55:09.115Z,62.88
2023-04-23T20:57:37.351Z,64.51
2023-04-23T21:00:11.294Z,68.75
2023-04-23T21:02:39.392Z,68.88
2023-04-23T21:05:10.560Z,67.45
2023-04-23T21:07:37.575Z,65.51
2023-04-23T21:10:05.875Z,64.28
2023-04-23T21:12:33.163Z,64.28
2023-04-23T21:15:00.206Z,64.23
2023-04-23T21:17:27.182Z,64.54
2023-04-23T21:19:54.565Z,63.05
2023-04-23T21:22:21.493Z,62.60
2023-04-23T21:24:48.376Z,62.25
2023-04-23T21:27:16.745Z,66.55
2023-04-23T21:29:45.574Z,66.06
2023-04-23T21:32:12.529Z,75.26
2023-04-23T21:34:39.371Z,73.80
2023-04-23T21:37:06.308Z,70.93
2023-04-23T21:39:33.286Z,69.43
2023-04-23T21:42:01.103Z,72.58
2023-04-23T21:44:30.899Z,71.58
2023-04-23T21:46:57.868Z,69.73
2023-04-23T21:49:24.822Z,75.75
2023-04-23T21:51:54.783Z,73.20
2023-04-23T21:54:22.108Z,71.49
2023-04-23T21:56:49.114Z,75.41
2023-04-23T21:59:16.339Z,75.69
2023-04-23T22:01:44.877Z,74.66
2023-04-23T22:04:15.376Z,73.15
2023-04-23T22:06:45.014Z,76.47
2023-04-23T22:09:14.210Z,74.45
2023-04-23T22:14:40.688Z,73.99
2023-04-23T22:17:10.652Z,73.26
2023-04-23T22:19:37.597Z,72.25
2023-04-23T22:22:04.573Z,72.72
2023-04-23T22:24:31.430Z,70.79
2023-04-23T22:26:59.288Z,70.15
2023-04-23T22:29:26.326Z,71.54
2023-04-23T22:31:53.238Z,78.52
2023-04-23T22:34:20.143Z,77.33
2023-04-23T22:36:47.078Z,74.49
2023-04-23T22:39:13.925Z,72.85
2023-04-23T22:41:40.880Z,72.83
2023-04-23T22:44:09.511Z,76.32
2023-04-23T22:46:36.600Z,75.26
2023-04-23T22:49:03.589Z,74.89
2023-04-23T22:51:33.657Z,74.67
2023-04-23T22:54:00.769Z,74.11
2023-04-23T22:56:27.795Z,78.02
2023-04-23T22:58:54.655Z,75.44
2023-04-23T23:01:21.638Z,78.76
2023-04-23T23:03:48.706Z,82.18
2023-04-23T23:06:16.981Z,81.99
2023-04-23T23:08:43.977Z,79.07
2023-04-23T23:11:11.050Z,80.18
2023-04-23T23:13:39.885Z,80.71
2023-04-23T23:16:07.408Z,82.31
2023-04-23T23:18:34.375Z,80.96
2023-04-23T23:21:01.346Z,80.88
2023-04-23T23:23:28.302Z,79.62
2023-04-23T23:25:56.165Z,78.30
2023-04-23T23:28:23.964Z,76.25
2023-04-23T23:30:50.984Z,76.52
2023-04-23T23:33:18.070Z,78.66
2023-04-23T23:35:45.106Z,80.66
2023-04-23T23:38:12.221Z,82.52
2023-04-23T23:40:39.104Z,82.19
2023-04-23T23:43:06.032Z,81.88
2023-04-23T23:45:33.015Z,82.60
2023-04-23T23:48:00.032Z,81.75
2023-04-23T23:50:27.231Z,82.44
2023-04-23T23:52:54.525Z,81.13
2023-04-23T23:55:21.643Z,80.92
2023-04-23T23:57:48.643Z,81.36
